createdAt,value
2023-02-09T00:00:16.893Z,43.49
2023-02-09T00:01:19.453Z,48.05
2023-02-09T00:02:22.049Z,40.95
2023-02-09T00:03:24.617Z,45.36
2023-02-09T00:04:27.130Z,38.81
2023-02-09T00:05:29.697Z,42.91
2023-02-09T00:06:32.361Z,38.23
2023-02-09T00:07:34.907Z,43.94
2023-02-09T00:08:37.471Z,35.03
2023-02-09T00:09:39.943Z,34.77
2023-02-09T00:10:42.816Z,35.73
2023-02-09T00:11:45.669Z,38.06
2023-02-09T00:12:48.232Z,33.62
2023-02-09T00:13:50.810Z,30.73
2023-02-09T00:14:53.372Z,33.53
2023-02-09T00:15:55.979Z,44.43
2023-02-09T00:16:58.705Z,34.59
2023-02-09T00:18:01.290Z,35.61
2023-02-09T00:19:03.847Z,35.07
2023-02-09T00:20:06.713Z,27.71
2023-02-09T00:21:09.271Z,30.60
2023-02-09T00:22:11.835Z,33.65
2023-02-09T00:23:14.422Z,31.57
2023-02-09T00:24:16.982Z,30.35
2023-02-09T00:25:19.549Z,30.95
2023-02-09T00:26:22.405Z,35.09
2023-02-09T00:27:25.001Z,36.86
2023-02-09T00:28:27.683Z,30.53
2023-02-09T00:29:30.474Z,34.89
2023-02-09T00:30:33.464Z,34.99
2023-02-09T00:31:36.047Z,29.07
2023-02-09T00:32:38.755Z,36.63
2023-02-09T00:33:41.361Z,26.67
2023-02-09T00:34:43.915Z,36.59
2023-02-09T00:35:46.476Z,31.63
2023-02-09T00:36:49.133Z,31.90
2023-02-09T00:37:51.703Z,35.63
2023-02-09T00:38:54.300Z,35.23
2023-02-09T00:39:56.862Z,33.65
2023-02-09T00:40:59.438Z,35.15
2023-02-09T00:42:01.989Z,38.71
2023-02-09T00:43:04.556Z,40.35
2023-02-09T00:44:07.143Z,37.05
2023-02-09T00:45:09.701Z,36.87
2023-02-09T00:46:12.512Z,41.03
2023-02-09T00:47:15.019Z,36.31
2023-02-09T00:48:17.584Z,40.37
2023-02-09T00:49:20.177Z,43.45
2023-02-09T00:50:22.846Z,40.71
2023-02-09T00:51:25.408Z,48.54
2023-02-09T00:52:27.968Z,39.76
2023-02-09T00:53:30.534Z,41.45
2023-02-09T00:54:33.127Z,42.13
2023-02-09T00:55:35.692Z,41.77
2023-02-09T00:56:38.250Z,41.79
2023-02-09T00:57:40.828Z,46.56
2023-02-09T00:58:43.367Z,42.25
2023-02-09T00:59:45.942Z,46.04
2023-02-09T01:00:48.713Z,68.87
2023-02-09T01:01:51.370Z,56.83
2023-02-09T01:02:53.939Z,55.01
2023-02-09T01:03:56.497Z,66.09
2023-02-09T01:04:59.107Z,93.72
2023-02-09T01:06:01.652Z,63.41
2023-02-09T01:07:04.201Z,52.20
2023-02-09T01:08:07.064Z,57.66
2023-02-09T01:09:09.614Z,61.33
2023-02-09T01:10:12.749Z,59.75
2023-02-09T01:11:15.309Z,136.11
2023-02-09T01:12:17.867Z,158.51
2023-02-09T01:13:20.424Z,106.60
2023-02-09T01:14:22.982Z,105.07
2023-02-09T01:15:25.548Z,98.05
2023-02-09T01:16:28.410Z,111.03
2023-02-09T01:17:30.968Z,70.62
2023-02-09T01:18:33.528Z,60.40
2023-02-09T01:19:36.099Z,70.99
2023-02-09T01:20:38.764Z,61.47
2023-02-09T01:21:41.321Z,77.43
2023-02-09T01:22:43.886Z,53.37
2023-02-09T01:23:46.464Z,54.83
2023-02-09T01:24:49.033Z,48.72
2023-02-09T01:25:51.590Z,57.48
2023-02-09T01:26:54.454Z,51.86
2023-02-09T01:27:57.026Z,60.01
2023-02-09T01:28:59.614Z,122.75
2023-02-09T01:30:02.153Z,107.61
2023-02-09T01:31:04.811Z,129.47
2023-02-09T01:32:07.584Z,94.29
2023-02-09T01:33:10.188Z,99.62
2023-02-09T01:34:12.716Z,76.70
2023-02-09T01:35:15.278Z,99.89
2023-02-09T01:36:17.884Z,84.87
2023-02-09T01:37:20.446Z,72.80
2023-02-09T01:38:23.434Z,67.51
2023-02-09T01:39:25.994Z,67.08
2023-02-09T01:40:28.862Z,69.20
2023-02-09T01:41:31.471Z,67.17
2023-02-09T01:42:34.023Z,66.91
2023-02-09T01:43:36.580Z,67.32
2023-02-09T01:44:39.142Z,75.55
2023-02-09T01:45:41.709Z,76.55
2023-02-09T01:46:44.708Z,69.67
2023-02-09T01:47:47.224Z,76.70
2023-02-09T01:48:49.777Z,84.81
2023-02-09T01:49:52.335Z,69.43
2023-02-09T01:50:55.190Z,67.86
2023-02-09T01:51:57.683Z,67.73
2023-02-09T01:53:00.231Z,71.16
2023-02-09T01:54:02.827Z,81.36
2023-02-09T01:55:05.380Z,69.44
2023-02-09T01:56:08.236Z,69.02
2023-02-09T01:57:10.709Z,70.50
2023-02-09T01:58:13.255Z,57.61
2023-02-09T01:59:15.841Z,65.56
2023-02-09T02:00:18.599Z,72.79
2023-02-09T02:01:21.225Z,64.74
2023-02-09T02:02:24.132Z,64.29
2023-02-09T02:03:26.956Z,68.87
2023-02-09T02:04:29.491Z,69.61
2023-02-09T02:05:32.048Z,70.49
2023-02-09T02:06:34.605Z,67.07
2023-02-09T02:07:37.189Z,61.14
2023-02-09T02:08:39.752Z,65.96
2023-02-09T02:09:42.305Z,60.87
2023-02-09T02:10:45.510Z,60.24
2023-02-09T02:11:48.335Z,65.96
2023-02-09T02:12:50.933Z,61.91
2023-02-09T02:13:53.484Z,61.22
2023-02-09T02:14:56.054Z,60.87
2023-02-09T02:15:58.586Z,63.02
2023-02-09T02:17:01.701Z,60.76
2023-02-09T02:18:04.293Z,63.27
2023-02-09T02:19:06.745Z,59.24
2023-02-09T02:20:09.704Z,60.64
2023-02-09T02:21:12.258Z,67.43
2023-02-09T02:22:14.817Z,68.67
2023-02-09T02:23:17.419Z,58.00
2023-02-09T02:24:19.984Z,61.15
2023-02-09T02:25:22.539Z,62.58
2023-02-09T02:26:25.406Z,61.58
2023-02-09T02:27:27.860Z,58.59
2023-02-09T02:28:30.539Z,61.34
2023-02-09T02:29:33.104Z,61.53
2023-02-09T02:30:35.763Z,66.74
2023-02-09T02:31:38.407Z,70.56
2023-02-09T02:32:41.067Z,70.49
2023-02-09T02:33:43.660Z,72.45
2023-02-09T02:34:46.112Z,66.88
2023-02-09T02:35:48.575Z,65.00
2023-02-09T02:36:51.137Z,63.44
2023-02-09T02:37:53.703Z,72.36
2023-02-09T02:38:56.280Z,75.71
2023-02-09T02:39:58.852Z,66.37
2023-02-09T02:41:01.533Z,65.55
2023-02-09T02:42:04.080Z,72.19
2023-02-09T02:43:06.615Z,69.79
2023-02-09T02:44:09.304Z,70.37
2023-02-09T02:45:11.860Z,71.36
2023-02-09T02:46:14.558Z,69.45
2023-02-09T02:47:17.164Z,70.68
2023-02-09T02:48:19.731Z,66.53
2023-02-09T02:49:22.287Z,69.69
2023-02-09T02:50:25.017Z,67.26
2023-02-09T02:51:27.601Z,66.04
2023-02-09T02:52:30.157Z,60.96
2023-02-09T02:53:32.721Z,74.75
2023-02-09T02:54:35.293Z,77.00
2023-02-09T02:55:37.868Z,66.38
2023-02-09T02:56:40.629Z,67.93
2023-02-09T02:57:43.197Z,71.17
2023-02-09T02:58:45.752Z,65.75
2023-02-09T02:59:48.348Z,65.41
2023-02-09T03:00:51.009Z,67.25
2023-02-09T03:01:53.662Z,62.17
2023-02-09T03:02:56.335Z,69.36
2023-02-09T03:03:58.891Z,67.11
2023-02-09T03:05:01.520Z,72.27
2023-02-09T03:06:04.472Z,68.57
2023-02-09T03:07:06.993Z,67.69
2023-02-09T03:08:09.541Z,71.93
2023-02-09T03:09:12.127Z,65.46
2023-02-09T03:10:15.104Z,61.98
2023-02-09T03:11:17.658Z,63.11
2023-02-09T03:12:20.244Z,73.56
2023-02-09T03:13:22.795Z,69.06
2023-02-09T03:14:25.358Z,68.49
2023-02-09T03:15:27.948Z,71.36
2023-02-09T03:16:30.705Z,71.04
2023-02-09T03:17:33.266Z,66.32
2023-02-09T03:18:35.819Z,73.09
2023-02-09T03:19:38.376Z,80.97
2023-02-09T03:20:41.177Z,60.14
2023-02-09T03:21:43.732Z,66.88
2023-02-09T03:22:46.287Z,69.75
2023-02-09T03:23:48.844Z,63.72
2023-02-09T03:24:51.313Z,66.70
2023-02-09T03:25:53.887Z,71.04
2023-02-09T03:26:56.547Z,68.90
2023-02-09T03:27:59.117Z,65.91
2023-02-09T03:29:01.661Z,66.51
2023-02-09T03:30:04.506Z,68.01
2023-02-09T03:31:07.255Z,62.18
2023-02-09T03:32:10.157Z,77.57
2023-02-09T03:33:12.707Z,73.34
2023-02-09T03:34:15.160Z,100.67
2023-02-09T03:35:17.630Z,96.54
2023-02-09T03:36:20.488Z,86.31
2023-02-09T03:37:23.046Z,102.55
2023-02-09T03:38:25.614Z,101.40
2023-02-09T03:39:28.169Z,89.61
2023-02-09T03:40:30.922Z,88.89
2023-02-09T03:41:33.506Z,85.07
2023-02-09T03:42:36.061Z,83.42
2023-02-09T03:43:38.614Z,80.81
2023-02-09T03:44:41.187Z,83.13
2023-02-09T03:45:43.745Z,76.27
2023-02-09T03:46:46.734Z,73.81
2023-02-09T03:47:49.247Z,76.82
2023-02-09T03:48:51.809Z,80.60
2023-02-09T03:49:54.375Z,61.12
2023-02-09T03:50:57.231Z,56.05
2023-02-09T03:51:59.998Z,60.01
2023-02-09T03:53:02.550Z,60.88
2023-02-09T03:54:05.102Z,60.03
2023-02-09T03:55:07.673Z,66.49
2023-02-09T03:56:11.426Z,63.51
2023-02-09T03:57:13.960Z,62.17
2023-02-09T03:58:16.515Z,66.81
2023-02-09T03:59:19.067Z,74.98
2023-02-09T04:00:21.928Z,66.44
2023-02-09T04:01:24.523Z,70.49
2023-02-09T04:02:27.099Z,65.02
2023-02-09T04:03:29.697Z,58.00
2023-02-09T04:04:32.195Z,71.88
2023-02-09T04:05:34.771Z,66.37
2023-02-09T04:06:37.644Z,67.58
2023-02-09T04:07:40.206Z,58.67
2023-02-09T04:08:42.767Z,57.83
2023-02-09T04:09:45.325Z,59.46
2023-02-09T04:10:48.047Z,66.64
2023-02-09T04:11:50.644Z,66.41
2023-02-09T04:12:53.221Z,62.73
2023-02-09T04:13:55.823Z,64.61
2023-02-09T04:14:58.434Z,63.61
2023-02-09T04:16:01.109Z,56.91
2023-02-09T04:17:03.718Z,66.74
2023-02-09T04:18:06.254Z,74.77
2023-02-09T04:19:08.812Z,69.02
2023-02-09T04:20:11.715Z,70.60
2023-02-09T04:21:14.297Z,73.61
2023-02-09T04:22:16.844Z,78.91
2023-02-09T04:23:21.002Z,77.37
2023-02-09T04:24:23.817Z,70.75
2023-02-09T04:25:26.657Z,70.47
2023-02-09T04:26:29.290Z,68.23
2023-02-09T04:27:31.843Z,79.37
2023-02-09T04:28:34.402Z,79.13
2023-02-09T04:29:36.985Z,69.89
2023-02-09T04:30:39.664Z,75.26
2023-02-09T04:31:42.236Z,73.08
2023-02-09T04:32:45.165Z,81.56
2023-02-09T04:33:47.725Z,73.00
2023-02-09T04:34:50.326Z,75.65
2023-02-09T04:35:52.891Z,73.99
2023-02-09T04:36:55.684Z,74.94
2023-02-09T04:37:58.240Z,70.40
2023-02-09T04:39:00.799Z,74.63
2023-02-09T04:40:04.651Z,71.53
2023-02-09T04:41:07.860Z,57.34
2023-02-09T04:42:10.416Z,65.83
2023-02-09T04:43:12.875Z,77.99
2023-02-09T04:44:15.438Z,67.92
2023-02-09T04:45:17.997Z,68.56
2023-02-09T04:46:20.913Z,70.61
2023-02-09T04:47:23.469Z,77.88
2023-02-09T04:48:26.024Z,73.43
2023-02-09T04:49:28.580Z,76.74
2023-02-09T04:50:31.244Z,92.35
2023-02-09T04:51:33.872Z,103.05
2023-02-09T04:52:36.420Z,75.11
2023-02-09T04:53:38.980Z,96.41
2023-02-09T04:54:41.946Z,83.37
2023-02-09T04:55:44.502Z,92.50
2023-02-09T04:56:47.360Z,83.24
2023-02-09T04:57:49.950Z,76.61
2023-02-09T04:58:52.515Z,74.19
2023-02-09T04:59:55.077Z,72.97
2023-02-09T05:00:57.987Z,68.52
2023-02-09T05:02:00.598Z,75.38
2023-02-09T05:03:03.154Z,75.80
2023-02-09T05:04:05.739Z,65.62
2023-02-09T05:05:08.301Z,68.21
2023-02-09T05:06:11.275Z,84.27
2023-02-09T05:07:13.849Z,86.14
2023-02-09T05:08:16.407Z,75.68
2023-02-09T05:09:19.020Z,76.60
2023-02-09T05:10:21.690Z,110.09
2023-02-09T05:11:25.579Z,84.06
2023-02-09T05:12:28.528Z,86.72
2023-02-09T05:13:31.096Z,76.96
2023-02-09T05:14:33.687Z,70.35
2023-02-09T05:15:36.240Z,80.40
2023-02-09T05:16:39.518Z,72.46
2023-02-09T05:17:42.169Z,71.08
2023-02-09T05:18:44.762Z,76.37
2023-02-09T05:19:47.355Z,91.65
2023-02-09T05:20:50.225Z,81.89
2023-02-09T05:21:52.791Z,104.04
2023-02-09T05:22:55.360Z,79.15
2023-02-09T05:23:57.925Z,93.52
2023-02-09T05:25:00.536Z,83.11
2023-02-09T05:26:03.207Z,95.36
2023-02-09T05:27:05.759Z,74.67
2023-02-09T05:28:08.369Z,66.01
2023-02-09T05:29:10.985Z,83.15
2023-02-09T05:30:13.983Z,90.11
2023-02-09T05:31:16.742Z,88.60
2023-02-09T05:32:19.731Z,111.02
2023-02-09T05:33:22.593Z,93.99
2023-02-09T05:34:25.154Z,90.03
2023-02-09T05:35:27.716Z,79.59
2023-02-09T05:36:30.582Z,76.59
2023-02-09T05:37:33.140Z,78.13
2023-02-09T05:38:35.702Z,82.93
2023-02-09T05:39:38.265Z,76.46
2023-02-09T05:40:40.973Z,87.07
2023-02-09T05:41:43.526Z,72.46
2023-02-09T05:42:46.092Z,76.24
2023-02-09T05:43:48.652Z,77.25
2023-02-09T05:44:51.228Z,75.91
2023-02-09T05:45:53.842Z,87.35
2023-02-09T05:46:56.379Z,90.20
2023-02-09T05:47:58.959Z,87.01
2023-02-09T05:49:01.493Z,91.85
2023-02-09T05:50:04.389Z,95.55
2023-02-09T05:51:06.942Z,90.71
2023-02-09T05:52:09.572Z,66.37
2023-02-09T05:53:14.401Z,68.17
2023-02-09T05:54:16.816Z,63.33
2023-02-09T05:55:19.373Z,71.69
2023-02-09T05:56:22.193Z,65.84
2023-02-09T05:57:24.724Z,69.88
2023-02-09T05:58:27.459Z,58.66
2023-02-09T05:59:30.014Z,45.63
2023-02-09T06:00:32.879Z,56.52
2023-02-09T06:01:35.452Z,60.39
2023-02-09T06:02:38.055Z,50.29
2023-02-09T06:03:40.695Z,53.09
2023-02-09T06:04:43.497Z,52.41
2023-02-09T06:05:46.063Z,55.26
2023-02-09T06:06:48.926Z,105.90
2023-02-09T06:07:51.495Z,56.56
2023-02-09T06:08:54.050Z,50.35
2023-02-09T06:09:56.633Z,42.25
2023-02-09T06:10:59.305Z,52.43
2023-02-09T06:12:01.907Z,51.19
2023-02-09T06:13:04.942Z,46.29
2023-02-09T06:14:07.480Z,43.24
2023-02-09T06:15:10.068Z,44.40
2023-02-09T06:16:12.935Z,45.44
2023-02-09T06:17:15.506Z,51.76
2023-02-09T06:18:18.075Z,50.97
2023-02-09T06:19:20.642Z,58.77
2023-02-09T06:20:23.329Z,53.59
2023-02-09T06:21:25.876Z,48.86
2023-02-09T06:22:28.429Z,50.51
2023-02-09T06:23:31.029Z,59.19
2023-02-09T06:24:33.585Z,57.02
2023-02-09T06:25:36.136Z,63.49
2023-02-09T06:26:38.688Z,55.79
2023-02-09T06:27:41.243Z,59.61
2023-02-09T06:28:43.818Z,50.75
2023-02-09T06:29:46.372Z,63.70
2023-02-09T06:30:49.472Z,59.65
2023-02-09T06:31:52.396Z,58.76
2023-02-09T06:32:54.952Z,56.92
2023-02-09T06:33:57.551Z,60.87
2023-02-09T06:35:00.270Z,61.15
2023-02-09T06:36:03.088Z,54.93
2023-02-09T06:37:05.600Z,60.94
2023-02-09T06:38:08.151Z,66.91
2023-02-09T06:39:10.622Z,62.96
2023-02-09T06:40:13.682Z,57.74
2023-02-09T06:41:16.291Z,63.84
2023-02-09T06:42:18.852Z,65.35
2023-02-09T06:43:21.399Z,58.11
2023-02-09T06:44:23.960Z,56.72
2023-02-09T06:45:26.524Z,61.85
2023-02-09T06:46:29.488Z,66.30
2023-02-09T06:47:32.350Z,55.24
2023-02-09T06:48:34.909Z,56.21
2023-02-09T06:49:37.521Z,45.35
2023-02-09T06:50:40.472Z,51.08
2023-02-09T06:51:43.328Z,52.17
2023-02-09T06:52:45.986Z,54.39
2023-02-09T06:53:48.572Z,59.67
2023-02-09T06:54:51.168Z,48.68
2023-02-09T06:55:53.733Z,42.09
2023-02-09T06:56:56.399Z,50.59
2023-02-09T06:57:58.961Z,39.39
2023-02-09T06:59:01.520Z,44.42
2023-02-09T07:00:04.756Z,46.71
2023-02-09T07:01:07.308Z,54.83
2023-02-09T07:02:09.865Z,59.44
2023-02-09T07:03:12.420Z,46.24
2023-02-09T07:04:14.967Z,58.08
2023-02-09T07:05:17.534Z,57.73
2023-02-09T07:06:20.407Z,61.64
2023-02-09T07:07:25.324Z,53.01
2023-02-09T07:08:27.343Z,67.11
2023-02-09T07:09:29.983Z,64.03
2023-02-09T07:10:32.634Z,52.90
2023-02-09T07:11:35.099Z,63.92
2023-02-09T07:12:39.699Z,59.82
2023-02-09T07:13:42.033Z,63.90
2023-02-09T07:14:44.600Z,70.53
2023-02-09T07:15:47.174Z,66.89
2023-02-09T07:16:49.816Z,75.15
2023-02-09T07:17:52.416Z,74.53
2023-02-09T07:18:55.014Z,74.62
2023-02-09T07:19:57.540Z,73.03
2023-02-09T07:21:00.202Z,46.71
2023-02-09T07:22:02.766Z,48.13
2023-02-09T07:23:05.341Z,65.61
2023-02-09T07:24:07.894Z,60.62
2023-02-09T07:25:10.466Z,60.95
2023-02-09T07:26:13.112Z,76.12
2023-02-09T07:27:15.565Z,61.54
2023-02-09T07:28:18.200Z,67.21
2023-02-09T07:29:21.023Z,65.67
2023-02-09T07:30:23.683Z,70.61
2023-02-09T07:31:26.406Z,68.00
2023-02-09T07:32:29.340Z,74.71
2023-02-09T07:33:31.931Z,61.27
2023-02-09T07:34:34.486Z,77.22
2023-02-09T07:35:37.046Z,66.71
2023-02-09T07:36:40.013Z,94.12
2023-02-09T07:37:42.962Z,68.43
2023-02-09T07:38:45.537Z,51.52
2023-02-09T07:39:48.283Z,49.81
2023-02-09T07:40:51.350Z,58.60
2023-02-09T07:41:53.905Z,61.54
2023-02-09T07:42:56.458Z,79.61
2023-02-09T07:43:58.962Z,38.38
2023-02-09T07:45:02.117Z,73.89
2023-02-09T07:46:04.780Z,79.58
2023-02-09T07:47:07.323Z,76.48
2023-02-09T07:48:09.900Z,71.48
2023-02-09T07:49:12.493Z,59.87
2023-02-09T07:50:15.270Z,60.81
2023-02-09T07:51:17.809Z,50.60
2023-02-09T07:52:20.262Z,68.00
2023-02-09T07:53:22.818Z,68.30
2023-02-09T07:54:25.414Z,67.49
2023-02-09T07:55:27.981Z,83.61
2023-02-09T07:56:30.680Z,63.44
2023-02-09T07:57:33.239Z,88.73
2023-02-09T07:58:35.822Z,72.11
2023-02-09T07:59:38.394Z,75.42
2023-02-09T08:00:41.049Z,65.78
2023-02-09T08:01:43.645Z,72.70
2023-02-09T08:02:46.195Z,89.52
2023-02-09T08:03:48.741Z,97.13
2023-02-09T08:04:51.533Z,101.23
2023-02-09T08:05:54.178Z,116.45
2023-02-09T08:06:56.694Z,99.91
2023-02-09T08:07:59.150Z,90.60
2023-02-09T08:09:01.700Z,86.40
2023-02-09T08:10:04.515Z,93.26
2023-02-09T08:11:07.054Z,84.73
2023-02-09T08:12:09.713Z,76.61
2023-02-09T08:13:12.465Z,74.28
2023-02-09T08:14:15.019Z,83.41
2023-02-09T08:15:17.587Z,91.75
2023-02-09T08:16:20.571Z,77.72
2023-02-09T08:17:23.417Z,73.05
2023-02-09T08:18:25.881Z,83.89
2023-02-09T08:19:28.441Z,81.99
2023-02-09T08:20:31.096Z,45.28
2023-02-09T08:21:33.577Z,80.01
2023-02-09T08:22:36.123Z,74.14
2023-02-09T08:23:40.392Z,83.68
2023-02-09T08:24:43.068Z,74.21
2023-02-09T08:25:46.063Z,85.85
2023-02-09T08:26:48.998Z,80.06
2023-02-09T08:27:52.359Z,82.65
2023-02-09T08:28:55.004Z,78.45
2023-02-09T08:29:57.593Z,71.75
2023-02-09T08:31:00.306Z,73.89
2023-02-09T08:32:02.868Z,73.23
2023-02-09T08:33:05.391Z,76.65
2023-02-09T08:34:07.952Z,72.14
2023-02-09T08:35:10.521Z,69.58
2023-02-09T08:36:13.720Z,76.37
2023-02-09T08:37:16.593Z,69.86
2023-02-09T08:38:19.140Z,83.73
2023-02-09T08:39:21.703Z,74.17
2023-02-09T08:40:24.372Z,76.43
2023-02-09T08:41:26.982Z,76.91
2023-02-09T08:42:29.570Z,75.27
2023-02-09T08:43:32.133Z,76.33
2023-02-09T08:44:34.698Z,69.61
2023-02-09T08:45:37.372Z,83.79
2023-02-09T08:46:40.467Z,76.91
2023-02-09T08:47:43.010Z,73.19
2023-02-09T08:48:45.577Z,70.22
2023-02-09T08:49:48.173Z,73.97
2023-02-09T08:50:51.006Z,65.93
2023-02-09T08:51:53.592Z,66.72
2023-02-09T08:52:56.152Z,56.55
2023-02-09T08:53:59.852Z,56.85
2023-02-09T08:55:02.429Z,62.55
2023-02-09T08:56:05.284Z,63.45
2023-02-09T08:57:07.880Z,90.11
2023-02-09T08:58:10.449Z,82.69
2023-02-09T08:59:13.013Z,82.08
2023-02-09T09:00:15.980Z,81.37
2023-02-09T09:01:18.603Z,80.25
2023-02-09T09:02:21.351Z,77.61
2023-02-09T09:03:23.947Z,81.46
2023-02-09T09:04:26.511Z,79.11
2023-02-09T09:05:31.206Z,72.99
2023-02-09T09:06:33.523Z,66.42
2023-02-09T09:07:36.239Z,72.62
2023-02-09T09:08:38.816Z,62.34
2023-02-09T09:09:41.359Z,72.81
2023-02-09T09:10:44.218Z,61.44
2023-02-09T09:11:46.809Z,70.07
2023-02-09T09:12:49.397Z,52.77
2023-02-09T09:13:51.962Z,61.13
2023-02-09T09:14:54.516Z,67.33
2023-02-09T09:15:57.089Z,65.96
2023-02-09T09:17:00.026Z,78.81
2023-02-09T09:18:02.957Z,75.37
2023-02-09T09:19:05.525Z,77.57
2023-02-09T09:20:08.491Z,71.53
2023-02-09T09:21:12.307Z,60.61
2023-02-09T09:22:15.142Z,49.26
2023-02-09T09:23:17.730Z,65.55
2023-02-09T09:24:20.287Z,49.66
2023-02-09T09:25:22.879Z,63.86
2023-02-09T09:26:25.741Z,51.89
2023-02-09T09:27:28.323Z,65.31
2023-02-09T09:28:30.963Z,50.54
2023-02-09T09:29:33.817Z,56.92
2023-02-09T09:30:36.495Z,51.63
2023-02-09T09:31:39.172Z,45.45
2023-02-09T09:32:42.011Z,50.29
2023-02-09T09:33:44.833Z,48.81
2023-02-09T09:34:47.381Z,48.91
2023-02-09T09:35:49.936Z,50.09
2023-02-09T09:36:52.856Z,53.07
2023-02-09T09:37:55.424Z,53.67
2023-02-09T09:38:58.026Z,66.65
2023-02-09T09:40:00.596Z,58.83
2023-02-09T09:41:03.155Z,54.63
2023-02-09T09:42:05.703Z,62.36
2023-02-09T09:43:08.273Z,66.75
2023-02-09T09:44:10.883Z,63.62
2023-02-09T09:45:13.434Z,98.14
2023-02-09T09:46:16.266Z,83.33
2023-02-09T09:47:19.206Z,84.32
2023-02-09T09:48:21.768Z,81.79
2023-02-09T09:49:24.372Z,39.32
2023-02-09T09:50:27.137Z,75.84
2023-02-09T09:51:29.693Z,84.25
2023-02-09T09:52:32.240Z,78.40
2023-02-09T09:53:34.809Z,79.77
2023-02-09T09:54:37.375Z,62.97
2023-02-09T09:55:39.950Z,80.59
2023-02-09T09:56:42.914Z,76.41
2023-02-09T09:57:45.476Z,62.96
2023-02-09T09:58:48.043Z,79.97
2023-02-09T09:59:50.599Z,69.51
2023-02-09T10:00:53.296Z,74.19
2023-02-09T10:01:56.109Z,68.96
2023-02-09T10:02:58.662Z,66.09
2023-02-09T10:04:01.337Z,71.79
2023-02-09T10:05:03.898Z,65.71
2023-02-09T10:06:06.876Z,73.34
2023-02-09T10:07:09.542Z,71.71
2023-02-09T10:08:12.111Z,80.60
2023-02-09T10:09:14.689Z,80.86
2023-02-09T10:10:18.188Z,74.96
2023-02-09T10:11:20.755Z,59.85
2023-02-09T10:12:23.371Z,66.18
2023-02-09T10:13:25.933Z,64.51
2023-02-09T10:14:28.495Z,65.84
2023-02-09T10:15:31.051Z,67.15
2023-02-09T10:16:33.958Z,67.47
2023-02-09T10:17:36.477Z,66.54
2023-02-09T10:18:39.043Z,64.53
2023-02-09T10:19:41.610Z,64.84
2023-02-09T10:20:44.286Z,57.01
2023-02-09T10:21:46.832Z,60.57
2023-02-09T10:22:49.419Z,51.63
2023-02-09T10:23:51.986Z,52.23
2023-02-09T10:24:54.545Z,52.40
2023-02-09T10:25:57.100Z,61.67
2023-02-09T10:26:59.974Z,58.61
2023-02-09T10:28:02.570Z,68.64
2023-02-09T10:29:05.189Z,60.01
2023-02-09T10:30:07.971Z,64.68
2023-02-09T10:31:10.596Z,46.75
2023-02-09T10:32:13.293Z,53.22
2023-02-09T10:33:15.852Z,62.83
2023-02-09T10:34:18.556Z,64.45
2023-02-09T10:35:21.321Z,64.37
2023-02-09T10:36:24.303Z,69.31
2023-02-09T10:37:26.848Z,62.83
2023-02-09T10:38:30.749Z,68.57
2023-02-09T10:39:33.812Z,66.64
2023-02-09T10:40:36.468Z,64.16
2023-02-09T10:41:39.040Z,54.69
2023-02-09T10:42:42.810Z,56.29
2023-02-09T10:43:45.364Z,69.25
2023-02-09T10:44:47.848Z,61.26
2023-02-09T10:45:50.444Z,73.46
2023-02-09T10:46:53.437Z,66.39
2023-02-09T10:47:56.007Z,68.67
2023-02-09T10:48:58.563Z,37.89
2023-02-09T10:50:01.117Z,63.05
2023-02-09T10:51:03.687Z,64.62
2023-02-09T10:52:06.267Z,61.47
2023-02-09T10:53:08.841Z,66.26
2023-02-09T10:54:11.390Z,87.55
2023-02-09T10:55:13.969Z,62.97
2023-02-09T10:56:16.826Z,65.95
2023-02-09T10:57:19.382Z,58.90
2023-02-09T10:58:21.946Z,53.73
2023-02-09T10:59:24.506Z,58.19
2023-02-09T11:00:27.574Z,70.09
2023-02-09T11:01:30.200Z,67.89
2023-02-09T11:02:32.815Z,55.11
2023-02-09T11:03:35.390Z,58.22
2023-02-09T11:04:38.007Z,57.57
2023-02-09T11:05:40.928Z,61.15
2023-02-09T11:06:43.928Z,43.05
2023-02-09T11:07:46.487Z,55.30
2023-02-09T11:08:49.048Z,50.00
2023-02-09T11:09:51.608Z,70.60
2023-02-09T11:10:54.570Z,53.20
2023-02-09T11:11:57.246Z,68.29
2023-02-09T11:12:59.806Z,66.49
2023-02-09T11:14:02.410Z,58.53
2023-02-09T11:15:04.950Z,55.11
2023-02-09T11:16:08.288Z,57.49
2023-02-09T11:17:10.964Z,54.76
2023-02-09T11:18:13.549Z,57.32
2023-02-09T11:19:17.413Z,58.89
2023-02-09T11:20:20.405Z,63.88
2023-02-09T11:21:23.154Z,46.23
2023-02-09T11:22:28.945Z,56.38
2023-02-09T11:23:30.422Z,65.45
2023-02-09T11:24:33.000Z,62.39
2023-02-09T11:25:35.557Z,60.81
2023-02-09T11:26:38.530Z,66.41
2023-02-09T11:27:41.145Z,59.00
2023-02-09T11:28:45.032Z,63.99
2023-02-09T11:29:47.676Z,63.38
2023-02-09T11:30:50.997Z,66.79
2023-02-09T11:31:54.166Z,65.04
2023-02-09T11:32:56.823Z,63.77
2023-02-09T11:33:59.412Z,53.00
2023-02-09T11:35:02.606Z,55.60
2023-02-09T11:36:05.694Z,49.78
2023-02-09T11:37:08.559Z,53.92
2023-02-09T11:38:12.151Z,55.92
2023-02-09T11:39:15.514Z,53.01
2023-02-09T11:40:18.506Z,46.44
2023-02-09T11:41:21.055Z,52.73
2023-02-09T11:42:23.653Z,48.49
2023-02-09T11:43:26.217Z,43.43
2023-02-09T11:44:29.070Z,46.59
2023-02-09T11:45:31.638Z,51.33
2023-02-09T11:46:34.788Z,44.34
2023-02-09T11:47:37.914Z,42.74
2023-02-09T11:48:40.480Z,44.88
2023-02-09T11:49:43.043Z,46.15
2023-02-09T11:50:46.137Z,45.83
2023-02-09T11:51:49.319Z,47.22
2023-02-09T11:52:51.911Z,46.26
2023-02-09T11:53:54.725Z,47.60
2023-02-09T11:54:57.259Z,46.03
2023-02-09T11:56:00.039Z,50.31
2023-02-09T11:57:02.607Z,43.85
2023-02-09T11:58:05.158Z,43.65
2023-02-09T11:59:07.724Z,43.53
2023-02-09T12:00:10.449Z,46.88
2023-02-09T12:01:15.842Z,41.07
2023-02-09T12:02:17.444Z,44.16
2023-02-09T12:03:20.085Z,49.92
2023-02-09T12:04:22.711Z,46.91
2023-02-09T12:05:25.432Z,45.78
2023-02-09T12:06:28.207Z,44.35
2023-02-09T12:07:32.886Z,47.81
2023-02-09T12:08:35.291Z,47.75
2023-02-09T12:09:37.852Z,46.71
2023-02-09T12:10:41.333Z,48.87
2023-02-09T12:11:43.921Z,44.73
2023-02-09T12:12:46.503Z,50.38
2023-02-09T12:13:50.402Z,42.67
2023-02-09T12:14:53.328Z,55.27
2023-02-09T12:15:55.892Z,45.49
2023-02-09T12:16:59.562Z,44.61
2023-02-09T12:18:02.129Z,52.48
2023-02-09T12:19:04.685Z,52.96
2023-02-09T12:20:07.553Z,51.00
2023-02-09T12:21:10.136Z,50.64
2023-02-09T12:22:12.674Z,50.99
2023-02-09T12:23:15.260Z,54.25
2023-02-09T12:24:17.815Z,51.39
2023-02-09T12:25:20.404Z,52.72
2023-02-09T12:26:23.280Z,48.15
2023-02-09T12:27:25.840Z,50.99
2023-02-09T12:28:28.451Z,45.66
2023-02-09T12:29:31.380Z,41.93
2023-02-09T12:30:34.266Z,41.96
2023-02-09T12:31:36.900Z,40.43
2023-02-09T12:32:39.574Z,38.26
2023-02-09T12:33:42.187Z,42.16
2023-02-09T12:34:45.213Z,43.18
2023-02-09T12:35:47.761Z,47.70
2023-02-09T12:36:50.621Z,43.91
2023-02-09T12:37:53.186Z,44.49
2023-02-09T12:39:03.980Z,48.32
2023-02-09T12:40:00.206Z,52.15
2023-02-09T12:41:02.779Z,50.37
2023-02-09T12:42:05.338Z,50.43
2023-02-09T12:43:07.898Z,46.23
2023-02-09T12:44:10.530Z,47.75
2023-02-09T12:45:13.069Z,49.28
2023-02-09T12:46:15.887Z,48.23
2023-02-09T12:47:18.506Z,48.55
2023-02-09T12:48:21.085Z,45.80
2023-02-09T12:49:23.653Z,54.15
2023-02-09T12:50:26.536Z,32.46
2023-02-09T12:51:29.088Z,38.85
2023-02-09T12:52:31.649Z,36.06
2023-02-09T12:53:34.210Z,32.84
2023-02-09T12:54:36.821Z,35.08
2023-02-09T12:55:39.383Z,36.19
2023-02-09T12:56:42.268Z,33.44
2023-02-09T12:57:47.234Z,30.15
2023-02-09T12:58:49.202Z,40.42
2023-02-09T12:59:51.800Z,37.22
2023-02-09T13:00:54.503Z,42.11
2023-02-09T13:01:57.135Z,38.85
2023-02-09T13:02:59.704Z,44.12
2023-02-09T13:04:03.409Z,42.76
2023-02-09T13:05:06.036Z,34.36
2023-02-09T13:06:09.304Z,37.93
2023-02-09T13:07:11.762Z,38.14
2023-02-09T13:08:14.318Z,34.69
2023-02-09T13:09:16.877Z,33.17
2023-02-09T13:10:20.065Z,30.93
2023-02-09T13:11:22.620Z,33.47
2023-02-09T13:12:25.176Z,38.39
2023-02-09T13:13:27.735Z,36.28
2023-02-09T13:14:30.304Z,41.64
2023-02-09T13:15:32.855Z,36.70
2023-02-09T13:16:35.835Z,37.82
2023-02-09T13:17:38.706Z,35.35
2023-02-09T13:18:41.265Z,35.22
2023-02-09T13:19:47.987Z,37.65
2023-02-09T13:20:48.645Z,35.56
2023-02-09T13:21:51.223Z,36.64
2023-02-09T13:22:53.784Z,38.15
2023-02-09T13:23:56.350Z,38.28
2023-02-09T13:24:58.915Z,37.95
2023-02-09T13:26:01.514Z,45.56
2023-02-09T13:27:04.058Z,42.29